Date,TemperatureHighF,TemperatureAvgF,TemperatureLowF,DewpointHighF,DewpointAvgF,DewpointLowF,HumidityHigh,HumidityAvg,HumidityLow,PressureMaxIn,PressureMinIn,WindSpeedMaxMPH,WindSpeedAvgMPH,GustSpeedMaxMPH,PrecipitationSumIn
2013-1-1,15,-1,-19,11,-7,-24,83,76,67,30.36,30.10,6,2,10,0.00
2013-1-2,17,15,13,14,11,9,88,85,82,30.14,30.02,8,3,11,0.00
2013-1-3,18,14,9,15,8,2,88,78,61,30.28,30.06,12,4,16,0.00
2013-1-4,33,17,6,18,10,2,87,77,53,30.20,30.06,8,2,12,0.00
2013-1-5,24,13,1,17,8,-3,88,79,64,30.17,29.91,5,2,10,0.00
2013-1-6,24,16,9,16,8,3,85,74,51,30.27,30.03,10,3,17,0.00
2013-1-7,37,27,18,23,19,12,83,72,56,30.03,29.90,11,5,19,0.01
2013-1-8,36,23,6,26,18,3,88,80,66,30.06,29.78,11,3,17,0.00
2013-1-9,33,28,16,26,19,11,83,70,54,30.36,29.90,16,5,26,0.02
2013-1-10,40,34,18,30,22,14,90,64,43,30.36,29.77,13,5,20,0.18
2013-1-11,39,36,33,37,34,30,93,92,90,29.77,29.40,9,4,20,0.15
2013-1-12,39,17,7,37,12,1,93,78,67,30.12,29.41,19,6,26,0.00
2013-1-13,7,4,-1,2,-1,-5,84,79,72,30.30,30.10,10,2,11,0.00
2013-1-14,12,4,-4,5,-2,-8,85,76,60,30.45,30.30,10,2,17,0.00
2013-1-15,27,16,4,16,9,0,86,72,50,30.32,29.80,13,4,18,0.00
2013-1-16,32,23,8,28,13,-5,90,67,38,30.34,29.69,14,6,22,0.00
2013-1-17,15,7,-1,5,-2,-7,81,64,54,30.45,30.34,10,2,13,0.00
2013-1-18,37,22,11,27,16,5,87,79,66,30.35,29.77,10,2,12,0.04
2013-1-19,35,19,1,27,12,-8,90,76,51,30.30,29.72,26,6,41,0.01
2013-1-20,3,-2,-8,-6,-9,-16,78,70,59,30.47,30.30,11,4,22,0.00
2013-1-21,-6,-12,-22,-16,-20,-28,75,66,52,30.42,30.33,10,3,19,0.00
2013-1-22,-1,-12,-27,-11,-20,-32,77,68,54,30.50,30.32,10,1,13,0.00
2013-1-23,12,0,-13,2,-10,-21,79,64,44,30.73,30.22,19,4,29,0.00
2013-1-24,9,-3,-14,0,-12,-22,71,64,56,30.78,30.24,8,2,17,0.00
2013-1-25,17,11,-1,11,3,-6,81,71,57,30.40,29.99,16,5,22,0.00
2013-1-26,19,6,-11,10,-2,-15,82,69,53,30.46,30.21,8,2,12,0.00
2013-1-27,35,24,13,26,18,7,88,76,55,30.21,29.90,8,2,12,0.00
2013-1-28,33,29,23,30,26,20,91,89,87,29.97,29.70,0,0,1,0.00
2013-1-29,35,30,22,31,27,16,93,86,73,29.84,29.60,11,3,21,0.07
2013-1-30,22,15,7,16,8,0,82,74,66,29.83,29.73,18,7,21,0.00
2013-1-31,7,1,-11,2,-7,-19,80,69,57,30.34,29.84,16,6,24,0.00
2013-2-1,-1,-9,-21,-7,-17,-26,77,67,50,30.41,30.19,6,1,13,0.00
2013-2-2,9,2,-14,2,-6,-19,82,71,53,30.28,30.07,6,1,10,0.00
2013-2-3,14,8,2,2,0,-3,82,68,54,30.15,30.06,11,3,16,0.00
2013-2-4,13,5,-9,8,-6,-15,83,62,41,30.17,29.79,9,2,15,0.00
2013-2-5,24,15,-5,17,8,-10,85,73,50,30.18,29.73,13,4,19,0.00
2013-2-6,21,12,-6,18,7,-11,87,82,78,30.20,30.04,8,2,11,0.00
2013-2-7,27,24,21,21,19,15,89,82,73,30.35,30.11,14,4,19,0.00
2013-2-8,27,17,7,17,10,2,88,75,57,30.46,30.30,5,2,10,0.00
2013-2-9,29,25,14,25,21,10,90,83,78,30.30,30.02,13,5,16,0.00
2013-2-10,31,28,25,29,25,21,92,89,86,30.02,29.39,11,4,19,0.00
2013-2-11,30,25,17,28,20,12,92,82,73,30.07,29.42,16,6,19,0.00
2013-2-12,33,21,6,21,14,2,86,75,57,30.08,29.83,10,3,14,0.05
2013-2-13,37,28,20,27,21,16,89,77,61,29.83,29.67,10,2,13,0.05
2013-2-14,30,23,6,25,13,-3,89,68,39,30.24,29.72,16,4,26,0.00
2013-2-15,18,9,1,1,-1,-5,80,63,44,30.37,30.24,13,4,20,0.00
2013-2-16,19,4,-11,5,-5,-16,82,67,47,30.30,30.22,6,1,9,0.00
2013-2-17,27,14,-11,16,5,-16,82,68,55,30.24,29.73,14,4,21,0.00
2013-2-18,32,24,8,25,16,-1,78,73,67,29.91,29.60,19,6,27,0.00
2013-2-19,10,4,-2,-1,-7,-12,72,60,46,30.44,29.91,23,8,27,0.00
2013-2-20,21,3,-12,4,-6,-17,79,67,45,30.56,30.44,11,2,14,0.00
2013-2-21,25,11,-9,15,3,-14,83,71,51,30.59,30.20,11,3,16,0.00
2013-2-22,28,23,16,22,18,12,88,83,76,30.20,29.91,10,3,14,0.00
2013-2-23,35,25,13,24,18,10,90,78,58,30.02,29.88,8,2,11,0.03
2013-2-24,36,22,9,22,15,5,87,74,55,30.18,30.02,7,2,13,0.07
2013-2-25,38,21,7,22,14,3,86,74,51,30.19,30.10,7,1,10,0.00
2013-2-26,39,24,9,26,17,5,88,76,53,30.16,29.98,13,4,19,0.00
2013-2-27,36,30,27,24,22,20,81,73,60,30.10,29.96,14,5,21,0.00
2013-2-28,30,26,20,21,17,12,76,69,62,30.32,30.10,13,4,18,0.00
2013-3-1,30,22,7,16,12,2,81,66,48,30.44,30.31,14,4,16,0.00
2013-3-2,30,13,-7,13,4,-11,85,66,42,30.46,30.24,6,1,8,0.00
2013-3-3,33,18,1,10,1,-4,82,54,24,30.24,30.09,9,2,11,0.00
2013-3-4,30,26,19,20,14,4,83,61,40,30.13,30.06,11,4,20,0.00
2013-3-5,27,23,16,23,19,12,88,85,80,30.37,30.09,10,3,14,0.00
2013-3-6,28,16,0,16,9,-5,88,74,53,30.48,30.37,11,3,17,0.02
2013-3-7,34,15,-5,17,6,-10,85,68,43,30.49,30.37,8,2,10,0.05
2013-3-8,38,25,7,27,18,2,86,73,58,30.41,30.16,9,3,13,0.09
2013-3-9,35,34,32,33,30,25,93,87,70,30.16,29.80,9,2,11,0.20
2013-3-10,33,32,27,31,27,21,93,83,76,30.06,29.87,14,6,19,0.10
2013-3-11,31,27,24,23,20,18,83,76,62,29.96,29.80,11,5,19,0.00
2013-3-12,29,22,14,18,12,7,87,66,41,30.23,29.87,18,6,25,0.00
2013-3-13,33,21,9,13,8,4,85,57,37,30.41,30.23,9,4,14,0.00
2013-3-14,41,28,20,26,19,10,83,70,53,30.30,30.08,8,3,11,0.00
2013-3-15,32,28,20,28,22,14,88,76,55,30.08,29.95,11,4,17,0.03
2013-3-16,24,19,10,12,6,-2,81,55,43,30.33,30.16,14,6,22,0.00
2013-3-17,26,12,-10,12,-1,-16,79,57,36,30.38,29.98,11,3,16,0.00
2013-3-18,27,21,13,24,14,4,89,75,61,29.99,29.65,18,7,30,0.00
2013-3-19,25,14,7,4,0,-8,74,54,34,30.23,29.83,24,9,28,0.00
2013-3-20,22,12,3,3,-3,-9,62,51,40,30.26,30.14,17,6,23,0.00
2013-3-21,29,13,-8,9,1,-13,81,60,39,30.23,30.10,10,2,13,0.00
2013-3-22,39,18,-4,14,5,-8,85,60,33,30.19,30.09,6,1,10,0.00
2013-3-23,42,28,14,21,15,8,79,60,38,30.23,30.14,7,2,9,0.00
2013-3-24,33,28,23,21,18,15,73,66,58,30.17,30.07,14,4,18,0.00
2013-3-25,39,29,17,18,15,10,76,58,39,30.25,30.13,14,4,21,0.00
2013-3-26,40,34,29,22,18,15,71,53,36,30.33,30.25,10,3,12,0.00
2013-3-27,44,34,22,24,19,12,79,57,31,30.39,30.32,6,2,9,0.00
2013-3-28,48,30,13,30,16,9,88,60,29,30.43,30.29,8,2,10,0.00
2013-3-29,49,36,23,32,24,17,80,61,42,30.34,30.11,11,3,13,0.01
2013-3-30,53,42,35,42,34,28,91,77,46,30.11,29.85,11,4,15,0.29
2013-3-31,38,32,25,30,20,8,86,62,32,30.13,29.81,23,7,29,0.00
2013-4-1,35,25,15,12,9,6,70,52,33,30.29,30.13,18,7,23,0.00
2013-4-2,38,25,11,14,10,5,80,54,31,30.40,30.29,16,4,19,0.00
2013-4-3,43,29,9,28,16,5,86,60,35,30.45,30.07,17,4,24,0.00
2013-4-4,48,40,28,31,23,14,75,52,30,30.23,30.01,19,6,22,0.00
2013-4-5,41,31,18,28,16,11,80,56,35,30.33,30.02,11,3,14,0.00
2013-4-6,44,36,33,32,29,24,91,75,52,30.02,29.62,11,4,16,0.19
2013-4-7,41,36,33,32,31,29,92,82,69,29.99,29.80,6,2,10,0.06
2013-4-8,42,37,35,40,35,31,93,90,84,30.14,29.80,10,3,11,0.59
2013-4-9,43,36,32,33,27,19,90,72,51,30.25,30.09,14,5,26,0.00
2013-4-10,40,35,30,23,18,11,67,51,32,30.27,30.04,18,6,26,0.00
2013-4-11,35,31,27,29,22,14,90,71,43,30.05,29.82,16,7,27,0.01
2013-4-12,37,30,27,29,25,22,89,81,63,29.91,29.76,14,4,16,0.19
2013-4-13,38,29,20,25,19,13,89,68,44,30.05,29.90,11,2,14,0.08
2013-4-14,35,28,17,31,23,13,92,81,52,30.05,29.62,17,5,27,0.08
2013-4-15,39,35,32,33,28,25,92,75,62,29.99,29.60,17,6,26,0.27
2013-4-16,45,37,28,28,25,20,78,64,42,30.38,29.99,13,4,14,0.00
2013-4-17,40,33,26,30,26,20,91,73,60,30.40,30.01,13,4,19,0.03
2013-4-18,33,31,29,30,29,27,94,92,87,30.03,29.56,13,5,19,0.01
2013-4-19,35,30,19,30,24,14,94,81,58,30.04,29.54,24,7,27,0.00
2013-4-20,42,27,8,24,12,4,88,59,29,30.38,30.04,7,2,10,0.27
2013-4-21,40,35,26,38,28,17,91,77,56,30.38,30.08,15,5,22,0.19
2013-4-22,45,36,31,36,29,21,93,76,45,30.28,30.16,13,5,25,0.00
2013-4-23,44,35,28,30,22,12,92,64,33,30.20,30.08,14,6,18,0.17
2013-4-24,48,34,20,33,23,15,85,68,34,30.11,29.91,22,4,29,0.02
2013-4-25,51,38,26,30,25,20,90,63,30,30.24,30.03,13,4,18,0.00
2013-4-26,72,53,38,40,33,25,80,49,22,30.17,30.02,11,4,16,0.11
2013-4-27,76,55,30,44,31,25,86,49,16,30.18,29.92,10,2,16,0.00
2013-4-28,77,62,49,51,44,41,74,54,31,29.92,29.69,19,5,22,0.02
2013-4-29,76,59,42,45,36,28,68,46,19,29.87,29.63,9,3,13,0.00
2013-4-30,73,63,54,56,41,21,75,49,20,29.97,29.45,17,6,26,0.00
2013-5-1,54,42,34,34,30,23,90,64,44,30.54,29.97,12,4,19,0.08
2013-5-2,47,38,34,26,23,21,63,54,41,30.61,30.47,17,5,20,0.00
2013-5-3,35,32,30,30,27,21,89,81,58,30.48,30.24,14,5,19,0.06
2013-5-4,43,36,31,38,32,28,92,87,79,30.26,30.20,11,5,16,0.17
2013-5-5,66,48,36,44,37,32,89,71,44,30.25,30.12,10,4,14,0.00
2013-5-6,77,54,35,46,39,31,88,61,27,30.18,30.03,11,2,13,0.00
2013-5-7,81,62,41,52,39,33,86,51,18,30.11,29.98,11,2,16,0.00
2013-5-8,76,61,45,52,44,38,82,57,29,30.05,29.98,10,2,14,0.02
2013-5-9,57,48,38,51,42,28,91,80,62,30.19,30.03,14,5,26,0.16
2013-5-10,67,48,30,37,25,18,81,48,16,30.20,29.91,11,3,14,0.00
2013-5-11,55,43,36,38,26,17,78,51,34,30.23,29.93,27,10,36,0.01
2013-5-12,63,44,26,24,18,13,71,40,17,30.28,30.14,19,5,24,0.00
2013-5-13,65,49,28,37,27,19,80,47,23,30.18,29.72,17,4,26,0.01
2013-5-14,93,66,39,48,39,27,83,45,11,29.84,29.47,20,5,32,0.00
2013-5-15,82,66,48,45,37,28,71,39,15,29.94,29.69,14,5,29,0.00
2013-5-16,81,65,46,47,34,23,76,38,14,29.99,29.85,13,3,18,0.00
2013-5-17,71,61,54,51,41,24,81,49,23,30.05,29.97,13,4,18,0.00
2013-5-18,77,62,52,64,55,48,92,79,57,30.03,29.83,9,3,15,0.34
2013-5-19,84,68,54,63,59,51,91,74,44,29.85,29.64,13,4,29,0.40
2013-5-20,71,59,49,64,54,46,94,85,65,29.67,29.55,11,4,19,0.16
2013-5-21,51,47,42,47,44,40,93,91,84,29.81,29.60,13,5,16,0.02
2013-5-22,51,46,42,46,43,40,93,88,81,30.07,29.80,15,5,23,0.02
2013-5-23,63,50,39,41,32,20,88,54,22,30.38,30.08,13,5,22,0.01
2013-5-24,69,52,30,41,32,26,88,52,23,30.48,30.24,13,3,15,0.03
2013-5-25,66,58,52,48,44,38,80,61,44,30.31,30.24,11,3,16,0.00
2013-5-26,70,57,42,43,37,30,82,51,26,30.31,30.10,13,3,18,0.00
2013-5-27,62,58,51,50,45,38,75,63,48,30.10,29.89,13,3,16,0.00
2013-5-28,62,57,53,53,50,47,85,78,71,29.90,29.75,8,2,11,0.00
2013-5-29,82,66,56,63,56,52,89,74,43,29.86,29.68,10,3,18,0.00
2013-5-30,80,69,63,66,60,57,91,74,47,29.73,29.55,16,5,23,0.31
2013-5-31,78,65,58,61,58,53,89,78,44,29.61,29.52,19,5,27,0.28
2013-6-1,67,57,48,59,52,41,89,82,72,29.99,29.60,15,4,21,0.05
2013-6-2,67,54,44,41,39,36,81,59,33,30.12,29.99,11,4,17,0.00
2013-6-3,72,56,36,49,38,33,90,55,28,30.11,30.01,7,2,14,0.00
2013-6-4,64,56,51,50,44,34,89,63,41,30.16,30.07,12,3,16,0.00
2013-6-5,55,53,47,53,50,45,93,92,89,30.11,29.98,8,3,14,0.00
2013-6-6,56,51,46,52,48,44,94,90,83,30.08,30.03,8,3,16,0.00
2013-6-7,66,55,48,52,48,43,90,78,55,30.09,29.95,6,1,9,0.00
2013-6-8,73,61,49,57,50,45,90,69,45,29.96,29.91,11,2,15,0.00
2013-6-9,61,57,54,59,52,48,92,86,70,29.95,29.83,12,3,16,0.00
2013-6-10,72,61,53,63,56,51,93,85,64,29.88,29.83,6,2,13,0.00
2013-6-11,81,66,49,64,56,46,92,73,48,29.93,29.84,6,1,11,0.00
2013-6-12,77,66,54,64,56,46,86,71,44,29.96,29.82,8,2,16,0.00
2013-6-13,79,65,51,54,48,44,82,56,35,30.11,29.96,11,3,15,0.00
2013-6-14,79,65,48,58,52,44,89,66,42,30.11,29.92,12,3,17,0.00
2013-6-15,77,68,57,66,60,52,85,76,61,29.94,29.83,10,2,17,0.00
2013-6-16,86,69,49,57,48,39,91,55,20,29.90,29.79,16,4,23,0.00
2013-6-17,76,63,50,58,51,41,88,65,45,30.08,29.83,11,3,15,0.00
2013-6-18,77,60,43,51,45,39,88,60,31,30.16,30.04,8,3,13,0.00
2013-6-19,85,68,47,58,52,43,89,61,32,30.11,29.97,8,3,16,0.00
2013-6-20,86,73,66,66,61,56,88,67,48,30.02,29.93,12,4,16,0.19
2013-6-21,80,69,58,65,62,54,92,78,58,30.09,29.69,23,5,36,0.06
2013-6-22,77,68,60,68,62,55,91,82,71,30.02,29.80,10,3,23,0.01
2013-6-23,83,70,59,68,61,54,91,74,49,29.90,29.69,14,4,23,0.00
2013-6-24,85,73,56,68,61,52,90,70,45,29.93,29.79,10,2,13,0.00
2013-6-25,88,74,60,66,62,56,89,69,43,29.86,29.74,10,2,11,0.00
2013-6-26,88,77,67,78,68,61,89,73,52,29.81,29.68,12,3,37,0.00
2013-6-27,84,73,61,67,59,51,87,64,33,29.82,29.76,18,4,28,0.00
2013-6-28,76,66,59,65,59,54,88,78,59,29.82,29.74,18,4,26,0.00
2013-6-29,76,66,53,63,55,46,92,71,39,30.02,29.78,11,3,20,0.00
2013-6-30,84,66,49,59,50,45,89,62,26,30.14,30.02,10,2,13,0.00
2013-7-1,84,68,53,62,53,48,89,63,32,30.22,30.14,8,2,13,0.00
2013-7-2,84,66,48,54,48,43,85,57,29,30.21,30.08,8,2,11,0.00
2013-7-3,86,68,49,58,48,43,89,55,24,30.11,29.96,8,2,10,0.00
2013-7-4,88,73,56,61,56,50,83,57,32,29.99,29.88,14,3,18,0.00
2013-7-5,88,78,68,61,58,55,64,50,36,29.92,29.80,14,5,22,0.00
2013-7-6,84,78,71,68,62,57,69,59,48,29.88,29.82,11,4,18,0.00
2013-7-7,92,78,63,71,65,60,89,66,48,29.92,29.82,12,3,14,0.43
2013-7-8,83,65,54,68,60,52,93,84,57,30.03,29.92,8,2,11,0.00
2013-7-9,83,71,64,71,64,60,90,80,57,29.98,29.77,11,3,22,0.21
2013-7-10,80,66,57,59,55,52,86,69,39,30.04,29.90,11,4,17,0.00
2013-7-11,85,75,51,64,54,47,89,52,34,30.14,30.03,9,3,13,0.00
2013-7-12,84,84,84,53,53,53,35,35,35,30.03,30.03,5,5,0,0.00
2013-7-13,84,84,84,53,53,53,35,35,35,30.03,30.03,5,5,0,0.00
2013-7-14,84,84,84,53,53,53,35,35,35,30.03,30.03,5,5,0,0.00
2013-7-15,90,83,74,64,56,53,69,41,35,30.19,30.03,6,4,13,0.00
2013-7-16,92,81,71,72,66,63,84,63,41,30.19,30.13,13,3,15,0.00
2013-7-17,94,82,70,70,66,62,84,61,36,30.23,30.09,12,3,18,0.00
2013-7-18,95,84,73,71,66,63,81,58,36,30.10,29.71,21,4,25,0.00
2013-7-19,84,77,66,69,61,52,83,59,36,29.87,29.68,16,5,22,0.07
2013-7-20,80,69,60,59,52,46,83,58,35,30.00,29.85,11,3,13,0.13
2013-7-21,82,68,53,60,54,44,79,61,46,30.00,29.83,8,3,12,0.00
2013-7-22,87,72,61,68,60,50,84,67,38,29.84,29.66,16,4,22,0.00
2013-7-23,78,64,53,52,48,42,85,59,32,30.03,29.84,11,3,14,0.00
2013-7-24,79,64,50,55,51,45,86,66,38,30.10,29.95,8,2,11,0.00
2013-7-25,79,68,60,66,58,53,84,71,47,29.97,29.86,11,2,14,0.01
2013-7-26,68,59,48,60,52,40,90,78,61,30.10,29.89,17,4,27,0.05
2013-7-27,56,52,47,52,46,42,87,82,66,30.09,29.92,14,4,23,0.11
2013-7-28,71,58,49,53,48,44,87,71,50,30.05,29.95,11,3,17,0.00
2013-7-29,79,62,44,59,49,40,90,65,35,30.14,30.05,10,2,14,0.00
2013-7-30,70,65,58,60,57,54,85,77,70,30.13,30.06,8,2,10,0.00
2013-7-31,80,66,55,64,53,44,91,68,30,30.08,29.96,12,3,21,0.01
2013-8-1,81,64,47,58,50,43,87,63,34,30.04,29.87,14,3,22,0.00
2013-8-2,79,65,52,57,49,45,88,61,31,30.05,29.86,11,3,21,0.00
2013-8-3,79,62,46,54,46,41,87,59,28,30.21,30.05,13,2,20,0.00
2013-8-4,78,61,44,55,47,39,87,63,35,30.25,30.01,7,2,10,0.00
2013-8-5,81,66,58,65,58,50,89,78,52,30.01,29.78,10,2,21,0.30
2013-8-6,77,64,54,62,57,50,89,79,54,29.84,29.66,11,2,25,0.35
2013-8-7,79,64,51,60,52,45,92,68,34,30.03,29.79,14,3,15,0.00
2013-8-8,78,62,46,58,51,42,88,70,38,30.06,29.96,11,2,14,0.00
2013-8-9,76,61,47,60,49,44,91,67,37,30.10,29.98,16,3,24,0.00
2013-8-10,77,64,52,57,50,46,83,63,36,30.15,30.06,6,1,11,0.00
2013-8-11,81,65,47,62,51,43,89,64,35,30.11,29.97,6,2,14,0.06
2013-8-12,80,65,53,63,54,49,91,71,36,30.09,29.97,11,3,20,0.01
2013-8-13,77,60,43,56,46,39,90,63,31,30.19,30.09,8,2,14,0.00
2013-8-14,80,60,42,57,45,38,89,62,29,30.22,30.07,8,1,13,0.00
2013-8-15,81,64,49,60,50,45,89,64,32,30.14,30.03,7,2,11,0.00
2013-8-16,83,66,49,61,52,45,88,64,34,30.18,30.12,8,2,14,0.00
2013-8-17,83,67,50,60,50,45,87,60,31,30.18,30.05,11,3,18,0.00
2013-8-18,84,70,53,59,52,47,85,58,33,30.11,29.94,12,3,18,0.00
2013-8-19,86,77,72,64,63,62,74,63,47,29.90,29.86,6,2,16,0.00
2013-8-20,92,78,67,69,66,61,85,67,43,29.91,29.83,13,4,16,0.00
2013-8-21,90,76,62,74,65,54,90,72,35,30.02,29.83,11,2,16,0.00
2013-8-22,86,71,55,55,48,38,78,48,20,30.15,30.02,10,2,11,0.00
2013-8-23,89,69,45,60,50,41,88,57,26,30.18,30.02,8,2,11,0.00
2013-8-24,90,78,68,68,64,59,76,62,44,30.09,29.91,16,6,24,0.00
2013-8-25,98,85,75,71,68,66,76,60,38,30.00,29.88,13,4,19,0.00
2013-8-26,93,83,73,74,71,65,81,68,52,29.98,29.79,9,2,21,0.00
2013-8-27,88,77,67,74,69,63,87,79,58,29.93,29.79,10,2,13,0.00
2013-8-28,91,75,65,76,63,58,91,69,35,30.02,29.93,6,2,9,0.00
2013-8-29,94,78,64,74,66,59,86,68,40,30.02,29.81,18,3,33,0.48
2013-8-30,86,72,62,67,62,54,91,72,40,29.94,29.81,10,3,33,0.00
2013-8-31,89,71,55,67,59,51,90,69,40,29.92,29.71,13,2,23,0.00
2013-9-1,74,66,56,62,56,48,85,70,57,29.99,29.74,15,4,20,0.00
2013-9-2,70,57,45,52,47,40,85,70,44,30.11,29.99,7,2,11,0.00
2013-9-3,78,58,37,55,46,34,91,69,38,30.11,29.96,9,2,14,0.00
2013-9-4,81,65,56,62,54,49,87,71,42,30.17,30.00,12,2,13,0.00
2013-9-5,83,65,46,57,48,42,89,59,26,30.26,30.11,8,2,10,0.00
2013-9-6,92,76,61,67,60,51,84,61,31,30.12,29.85,12,3,20,0.00
2013-9-7,92,76,63,68,61,54,83,61,38,30.07,29.86,13,3,19,0.00
2013-9-8,68,60,56,57,53,47,89,77,49,30.11,29.91,8,2,13,0.68
2013-9-9,84,70,59,74,65,56,92,85,69,29.92,29.64,13,2,15,0.03
2013-9-10,82,71,63,69,63,55,92,77,47,29.97,29.74,8,2,16,0.07
2013-9-11,82,70,59,56,52,46,85,56,30,30.05,29.97,14,3,19,0.00
2013-9-12,71,58,44,54,46,38,89,68,39,30.23,30.05,14,3,22,0.00
2013-9-13,70,52,35,51,39,32,89,67,34,30.28,30.09,6,1,8,0.00
2013-9-14,72,55,42,52,46,37,88,73,39,30.10,29.91,9,2,16,0.68
2013-9-15,61,55,39,57,50,36,93,84,63,30.35,29.93,10,2,18,0.06
2013-9-16,67,49,33,50,37,30,92,68,34,30.48,30.26,7,2,11,0.00
2013-9-17,70,56,40,52,45,35,84,69,46,30.29,29.97,15,4,19,0.00
2013-9-18,69,64,57,64,60,52,91,87,82,29.96,29.72,10,3,14,0.02
2013-9-19,77,69,62,70,64,58,92,87,78,29.79,29.63,11,3,34,1.44
2013-9-20,63,57,46,58,51,41,92,82,61,29.92,29.76,13,3,21,0.06
2013-9-21,63,52,40,46,42,36,88,71,48,30.01,29.91,8,2,13,0.00
2013-9-22,69,52,36,49,42,32,91,71,46,30.06,29.90,10,3,17,0.00
2013-9-23,72,60,50,51,47,43,79,64,41,29.99,29.91,16,4,19,0.00
2013-9-24,75,60,49,52,47,43,85,67,37,30.02,29.93,10,2,12,0.00
2013-9-25,74,57,41,60,46,38,91,70,42,30.01,29.89,9,2,12,0.00
2013-9-26,77,64,49,56,52,43,85,67,47,29.97,29.87,15,4,21,0.00
2013-9-27,79,69,64,60,56,53,69,64,51,29.93,29.82,15,5,21,0.00
2013-9-30,76,70,65,51,49,46,55,48,39,29.63,29.61,11,4,22,0.00
2013-10-1,73,65,59,52,45,31,72,51,22,29.83,29.56,13,5,25,0.00
2013-10-2,72,72,72,32,32,32,23,23,23,29.82,29.82,6,6,21,0.00
2013-10-3,53,52,52,51,50,50,92,92,92,29.99,29.97,6,4,11,0.00
2013-10-4,60,54,52,53,51,49,93,89,76,30.06,29.93,13,5,19,0.05
2013-10-5,57,53,50,55,51,48,94,93,91,29.94,29.74,11,4,19,0.94
2013-10-6,53,48,37,51,46,35,96,94,89,29.86,29.70,10,2,16,0.05
2013-10-7,63,46,32,53,39,31,96,79,39,30.01,29.86,11,2,13,0.01
2013-10-8,75,59,38,47,42,34,88,57,31,30.00,29.81,17,5,24,0.00
2013-10-9,75,63,54,50,46,43,74,56,38,30.04,29.92,12,4,18,0.00
2013-10-10,75,61,52,48,46,42,75,58,36,30.04,29.91,14,4,19,0.00
2013-10-11,75,65,55,58,49,46,76,58,42,29.92,29.64,21,6,29,0.00
2013-10-12,67,34,0,55,47,40,100,80,57,29.89,29.67,13,5,24,0.00
2013-10-13,0,0,0,53,53,53,100,100,100,29.89,29.89,5,5,0,0.00
2013-10-14,52,25,0,53,46,36,100,82,57,30.35,29.89,8,4,12,0.00
2013-10-15,50,47,44,47,44,39,90,87,73,30.07,29.70,13,4,19,0.00
2013-10-16,53,44,34,42,37,28,89,80,55,29.97,29.86,12,3,14,0.00
2013-10-17,54,43,34,44,38,29,87,81,63,29.91,29.78,10,2,16,0.00
2013-10-18,51,42,36,41,34,29,90,74,45,29.98,29.86,12,4,19,0.00
2013-10-19,45,38,28,39,33,23,89,81,68,29.87,29.72,9,2,12,0.00
2013-10-20,35,31,26,32,28,22,91,88,83,29.86,29.69,8,2,12,0.00
2013-10-21,36,33,30,31,26,22,91,75,60,29.94,29.86,16,4,23,0.00
2013-10-22,39,32,28,31,26,20,83,76,63,30.05,29.94,8,2,11,0.00
2013-10-23,35,32,29,31,26,21,88,78,64,30.14,30.00,10,2,15,0.00
2013-10-24,40,35,30,31,26,22,79,70,59,30.31,30.13,14,3,16,0.00
2013-10-25,51,41,29,39,31,23,83,69,54,30.31,29.75,14,3,26,0.00
2013-10-26,48,41,37,38,29,26,69,61,51,30.10,29.76,15,6,24,0.00
2013-10-27,53,40,29,33,27,22,80,62,45,30.22,29.82,14,4,18,0.00
2013-10-28,42,33,25,27,21,17,73,62,41,30.50,30.22,11,3,18,0.00
2013-10-29,36,32,23,31,26,17,85,78,68,30.46,30.16,9,2,11,0.00
2013-10-30,47,41,35,44,38,31,89,88,85,30.16,29.70,6,2,9,0.00
2013-10-31,47,44,40,44,41,38,92,91,89,29.70,29.41,12,3,13,0.00
2013-11-1,44,40,35,40,36,30,93,86,76,29.87,29.42,10,4,15,0.00
2013-11-2,47,37,27,34,28,20,84,72,52,30.14,29.86,8,2,10,0.00
2013-11-3,51,40,25,34,29,20,83,65,49,30.17,29.96,18,5,24,0.00
2013-11-4,47,43,31,40,34,26,85,72,56,30.17,29.86,15,5,24,0.00
2013-11-5,42,33,25,35,28,22,89,81,64,30.27,30.08,8,2,10,0.00
2013-11-6,38,31,26,30,25,19,89,80,59,30.19,30.06,10,3,16,0.00
2013-11-7,38,27,19,29,21,15,87,77,53,30.24,30.18,8,1,12,0.00
2013-11-8,40,31,18,32,24,14,87,79,64,30.23,29.64,13,3,25,0.00
2013-11-9,40,38,36,35,30,25,88,75,62,30.20,29.64,18,6,32,0.00
2013-11-10,42,36,28,28,25,20,77,65,55,30.33,30.13,14,4,22,0.00
2013-11-11,33,20,9,26,8,1,74,58,45,30.75,30.18,16,6,21,0.00
2013-11-12,28,17,7,11,6,0,81,62,40,30.78,30.42,9,2,15,0.00
2013-11-13,48,33,19,29,21,10,74,61,42,30.42,29.87,14,4,20,0.00
2013-11-14,50,37,26,35,29,21,82,73,56,29.87,29.76,6,2,9,0.00
2013-11-15,52,39,26,40,31,21,88,76,56,29.89,29.67,10,3,13,0.00
2013-11-16,46,43,40,43,37,32,88,81,72,29.67,29.32,12,4,19,0.00
2013-11-17,44,38,28,41,34,21,91,84,74,29.84,29.33,24,6,29,0.00
2013-11-18,29,26,15,21,17,9,78,70,65,30.30,29.84,19,6,28,0.00
2013-11-19,42,29,13,26,19,8,83,68,52,30.33,29.94,19,5,24,0.00
2013-11-20,44,40,35,30,25,22,80,56,44,30.09,29.93,14,6,23,0.00
2013-11-21,35,29,21,32,22,11,88,76,61,30.56,30.08,17,4,19,0.00
2013-11-22,31,20,9,14,8,-2,80,61,31,30.69,30.43,19,5,24,0.00
2013-11-23,17,8,-3,3,-2,-10,74,64,47,30.87,30.69,13,4,19,0.00
2013-11-24,29,17,-3,16,6,-10,77,62,46,30.73,29.94,21,6,27,0.00
2013-11-25,38,32,26,26,19,11,76,60,47,30.11,29.89,18,7,23,0.00
2013-11-26,26,16,5,17,5,-2,74,60,47,30.42,30.10,19,7,30,0.00
2013-11-27,22,13,-2,12,4,-7,81,67,55,30.44,30.12,8,2,10,0.00
2013-11-28,24,19,4,13,8,-3,74,63,56,30.56,30.12,14,2,16,0.00
2013-11-29,29,18,1,19,9,-5,80,68,56,30.58,30.14,15,3,18,0.00
2013-11-30,37,28,18,26,19,12,78,69,59,30.22,30.06,6,2,11,0.00
2013-12-1,31,22,12,25,16,7,84,79,73,30.24,29.97,5,1,8,0.00
2013-12-2,34,30,22,30,26,17,88,85,81,29.98,29.68,8,2,10,0.00
2013-12-3,33,32,28,30,29,25,90,89,88,29.88,29.68,10,2,19,0.00
2013-12-4,29,26,16,26,23,12,90,88,82,29.87,29.46,16,4,20,0.00
2013-12-5,16,4,-6,12,-2,-11,82,76,68,30.36,29.67,16,6,23,0.00
2013-12-6,2,-6,-14,-6,-12,-19,80,75,68,30.67,30.36,10,2,13,0.00
2013-12-7,-1,-14,-24,-10,-20,-29,79,73,63,30.76,30.63,10,1,14,0.00
2013-12-8,11,-1,-21,6,-7,-27,80,77,73,30.63,30.08,7,1,8,0.00
2013-12-9,1,-5,-10,-4,-11,-17,82,76,66,30.15,29.94,18,3,24,0.00
2013-12-10,5,-2,-10,-4,-8,-15,80,75,65,30.37,29.88,14,2,18,0.00
2013-12-11,-1,-9,-20,-10,-15,-25,78,73,61,30.60,30.35,10,2,14,0.00
2013-12-12,13,4,-10,6,-3,-16,81,74,67,30.35,30.22,6,1,12,0.00
2013-12-13,12,8,5,6,2,-2,78,76,72,30.40,30.24,10,4,14,0.00
2013-12-14,14,7,0,8,2,-5,81,79,75,30.37,30.12,10,3,15,0.00
2013-12-15,0,-7,-18,-5,-14,-25,78,70,59,30.25,30.15,11,3,16,0.00
2013-12-16,15,5,-6,11,-1,-12,85,77,69,30.21,29.89,11,2,17,0.00
2013-12-17,28,17,-5,21,11,-11,88,76,61,30.17,29.88,21,4,27,0.00
2013-12-18,32,15,-3,21,8,-9,79,73,62,30.14,29.69,8,2,16,0.00
2013-12-19,16,14,10,11,8,4,82,76,70,30.18,29.90,11,4,16,0.00
2013-12-20,21,10,3,15,5,-1,84,80,72,30.13,29.92,6,1,16,0.00
2013-12-21,21,15,10,16,10,6,83,81,76,30.10,29.92,6,1,10,0.00
2013-12-22,19,16,7,14,11,3,84,82,77,30.28,30.02,11,4,13,0.00
2013-12-23,7,0,-9,3,-5,-14,83,79,76,30.55,30.28,12,4,15,0.00
2013-12-24,8,-2,-19,3,-8,-24,81,78,72,30.54,30.19,11,3,14,0.00
2013-12-25,20,12,7,15,8,2,84,82,79,30.19,30.09,10,2,13,0.00
2013-12-26,20,13,6,14,8,1,84,80,75,30.23,30.14,2,0,5,0.00
2013-12-27,38,24,6,29,18,1,87,81,69,30.23,29.88,15,3,17,0.00
2013-12-28,34,26,13,31,23,9,90,88,84,30.14,29.74,21,4,23,0.00
2013-12-29,12,-9,-27,8,-18,-34,84,66,56,30.39,30.14,16,3,23,0.00
2013-12-30,-3,-14,-28,-10,-21,-35,78,73,69,30.37,30.25,2,0,4,0.00
2013-12-31,-4,-15,-26,-13,-22,-31,78,72,64,30.53,30.25,8,1,10,0.00
2014-1-1,-1,-8,-16,-9,-15,-22,73,70,67,30.58,30.50,6,1,8,0.00
2014-1-2,3,-14,-25,-10,-23,-32,74,64,51,30.57,30.42,7,0,10,0.00